createdAt,value
2019-01-26T00:29:05.881Z,2.6
2019-01-26T00:39:16.813Z,2.6
2019-01-26T00:49:30.173Z,2.7
2019-01-26T00:59:43.611Z,2.8
2019-01-26T01:09:57.689Z,2.9
2019-01-26T01:20:42.118Z,3.1
2019-01-26T01:30:55.740Z,3.0
2019-01-26T01:41:09.947Z,3.2
2019-01-26T01:51:23.747Z,3.3
2019-01-26T02:01:37.235Z,3.4
2019-01-26T02:12:04.208Z,3.5
2019-01-26T02:22:17.518Z,3.7
2019-01-26T02:33:02.205Z,3.9
2019-01-26T02:43:33.953Z,3.9
2019-01-26T02:53:47.698Z,4.1
2019-01-26T03:04:01.013Z,4.2
2019-01-26T03:14:12.456Z,4.3
2019-01-26T03:24:54.359Z,4.4
2019-01-26T03:35:07.474Z,4.5
2019-01-26T03:45:20.620Z,4.6
2019-01-26T03:55:33.900Z,4.6
2019-01-26T04:05:47.371Z,4.7
2019-01-26T04:16:01.401Z,4.8
2019-01-26T04:26:48.478Z,5.0
2019-01-26T04:37:02.474Z,5.0
2019-01-26T04:47:16.424Z,5.0
2019-01-26T04:57:29.972Z,5.1
2019-01-26T05:07:43.969Z,5.2
2019-01-26T05:18:19.325Z,5.2
2019-01-26T05:28:34.813Z,5.3
2019-01-26T05:39:23.074Z,5.4
2019-01-26T05:49:42.042Z,5.4
2019-01-26T05:59:56.024Z,5.4
2019-01-26T06:10:20.000Z,5.5
2019-01-26T06:20:31.692Z,5.5
2019-01-26T06:31:18.982Z,5.5
2019-01-26T06:42:05.743Z,5.6
2019-01-26T06:52:52.549Z,5.6
2019-01-26T07:03:41.492Z,5.7
2019-01-26T07:14:31.120Z,5.7
2019-01-26T07:24:44.621Z,5.7
2019-01-26T07:34:58.740Z,5.7
2019-01-26T07:45:12.915Z,5.7
2019-01-26T07:55:26.356Z,5.7
2019-01-26T08:06:11.779Z,5.7
2019-01-26T08:16:25.179Z,5.7
2019-01-26T08:26:38.366Z,5.8
2019-01-26T08:36:51.636Z,5.8
2019-01-26T08:47:05.220Z,5.8
2019-01-26T08:57:18.991Z,5.8
2019-01-26T09:07:32.160Z,5.8
2019-01-26T09:17:45.370Z,5.8
2019-01-26T09:28:30.955Z,5.9
2019-01-26T09:38:44.764Z,5.9
2019-01-26T09:49:48.392Z,6.0
2019-01-26T10:00:01.975Z,5.9
2019-01-26T10:10:17.044Z,6.0
2019-01-26T10:20:31.211Z,6.0
2019-01-26T10:30:44.950Z,6.0
2019-01-26T10:41:12.519Z,6.0
2019-01-26T10:51:58.096Z,6.0
2019-01-26T11:02:16.529Z,6.0
2019-01-26T11:13:04.426Z,6.1
2019-01-26T11:23:18.363Z,6.1
2019-01-26T11:34:21.824Z,6.1
2019-01-26T11:45:10.853Z,6.1
2019-01-26T11:55:26.534Z,6.1
2019-01-26T12:06:04.873Z,6.2
2019-01-26T12:16:53.285Z,6.2
2019-01-26T13:42:17.840Z,6.7
2019-01-26T16:12:11.231Z,7.5
2019-01-26T18:02:40.016Z,5.8
2019-01-26T18:17:06.746Z,5.8
2019-01-26T18:31:20.153Z,5.8
2019-01-26T18:58:18.575Z,5.8
2019-01-26T19:08:32.036Z,5.8
2019-01-26T19:18:45.875Z,5.8
2019-01-26T19:28:59.374Z,5.7
2019-01-26T19:40:11.264Z,5.7
2019-01-26T19:50:25.937Z,5.7
2019-01-26T20:01:13.773Z,5.8
2019-01-26T20:11:59.261Z,5.8
2019-01-26T20:23:00.030Z,5.9
2019-01-26T20:33:58.730Z,5.9
2019-01-26T20:44:21.513Z,5.9
2019-01-26T20:54:34.958Z,5.9
2019-01-26T21:05:23.544Z,5.9
2019-01-26T21:15:50.684Z,5.9
2019-01-26T21:26:41.384Z,5.9
2019-01-26T21:37:36.920Z,6.0
2019-01-26T21:47:50.734Z,6.0
2019-01-26T21:58:04.668Z,6.0
2019-01-26T22:08:56.269Z,6.0
2019-01-26T22:19:40.631Z,6.0
2019-01-26T22:30:25.972Z,6.0
2019-01-26T22:40:57.498Z,6.0
2019-01-26T22:51:11.268Z,6.0
2019-01-26T23:01:25.241Z,6.0
2019-01-26T23:12:09.806Z,6.0
2019-01-26T23:22:24.346Z,6.0
2019-01-26T23:32:37.603Z,6.0
2019-01-26T23:42:50.787Z,6.0
2019-01-26T23:53:37.315Z,5.9
